createdAt,value
2023-03-05T00:00:15.890Z,97188.60
2023-03-05T00:03:04.712Z,97186.09
2023-03-05T00:05:58.053Z,97190.17
2023-03-05T00:09:19.004Z,97192.92
2023-03-05T00:12:07.896Z,97196.55
2023-03-05T00:14:36.483Z,97203.54
2023-03-05T00:18:07.299Z,97202.15
2023-03-05T00:20:36.423Z,97205.80
2023-03-05T00:23:05.241Z,97208.28
2023-03-05T00:25:36.666Z,97208.87
2023-03-05T00:28:06.148Z,97212.48
2023-03-05T00:30:36.009Z,97209.48
2023-03-05T00:33:07.098Z,97202.21
2023-03-05T00:35:46.969Z,97199.09
2023-03-05T00:38:15.598Z,97195.38
2023-03-05T00:41:04.866Z,97194.52
2023-03-05T00:43:35.975Z,97200.83
2023-03-05T00:46:05.143Z,97195.33
2023-03-05T00:48:54.923Z,97196.77
2023-03-05T00:51:24.764Z,97192.80
2023-03-05T00:53:53.469Z,97189.21
2023-03-05T00:57:22.714Z,97188.62
2023-03-05T00:59:51.507Z,97188.43
2023-03-05T01:02:20.182Z,97181.77
2023-03-05T01:04:48.708Z,97187.11
2023-03-05T01:07:20.170Z,97190.27
2023-03-05T01:09:48.683Z,97183.48
2023-03-05T01:12:37.426Z,97177.52
2023-03-05T01:15:06.903Z,97188.45
2023-03-05T01:18:36.152Z,97180.54
2023-03-05T01:21:05.728Z,97184.66
2023-03-05T01:23:37.129Z,97178.40
2023-03-05T01:26:06.724Z,97182.39
2023-03-05T01:28:35.868Z,97179.41
2023-03-05T01:31:11.376Z,97178.98
2023-03-05T01:33:40.957Z,97179.34
2023-03-05T01:36:17.019Z,97177.44
2023-03-05T01:38:47.923Z,97175.31
2023-03-05T01:41:18.381Z,97171.50
2023-03-05T01:43:50.600Z,97171.48
2023-03-05T01:46:37.072Z,97170.69
2023-03-05T01:49:21.541Z,97171.33
2023-03-05T01:52:11.758Z,97174.27
2023-03-05T01:54:47.209Z,97172.93
2023-03-05T01:58:17.372Z,97169.79
2023-03-05T02:01:51.241Z,97167.74
2023-03-05T02:04:22.006Z,97166.69
2023-03-05T02:07:52.562Z,97173.20
2023-03-05T02:10:31.591Z,97179.55
2023-03-05T02:14:04.337Z,97188.75
2023-03-05T02:16:38.115Z,97185.02
2023-03-05T02:19:09.476Z,97183.22
2023-03-05T02:21:43.540Z,97184.40
2023-03-05T02:25:15.967Z,97181.20
2023-03-05T02:28:08.179Z,97184.14
2023-03-05T02:30:39.105Z,97186.39
2023-03-05T02:33:08.266Z,97186.67
2023-03-05T02:35:37.962Z,97187.27
2023-03-05T02:38:08.014Z,97189.55
2023-03-05T02:40:36.607Z,97187.52
2023-03-05T02:43:06.917Z,97185.07
2023-03-05T02:46:16.489Z,97188.85
2023-03-05T02:49:05.545Z,97192.21
2023-03-05T02:51:34.204Z,97191.82
2023-03-05T02:54:03.943Z,97194.11
2023-03-05T02:57:33.642Z,97198.89
2023-03-05T03:00:24.350Z,97196.34
2023-03-05T03:02:52.867Z,97192.11
2023-03-05T03:05:41.933Z,97192.70
2023-03-05T03:08:32.393Z,97192.74
2023-03-05T03:11:07.118Z,97191.19
2023-03-05T03:13:35.943Z,97187.02
2023-03-05T03:16:12.284Z,97189.07
2023-03-05T03:19:41.475Z,97186.67
2023-03-05T03:22:11.946Z,97185.99
2023-03-05T03:25:41.000Z,97188.17
2023-03-05T03:28:09.393Z,97189.71
2023-03-05T03:30:38.057Z,97190.48
2023-03-05T03:33:06.652Z,97192.49
2023-03-05T03:36:35.674Z,97189.16
2023-03-05T03:39:06.497Z,97189.89
2023-03-05T03:41:35.089Z,97189.84
2023-03-05T03:44:05.182Z,97191.97
2023-03-05T03:46:33.922Z,97191.66
2023-03-05T03:49:03.134Z,97193.64
2023-03-05T03:51:31.892Z,97194.33
2023-03-05T03:54:01.073Z,97194.84
2023-03-05T03:56:50.742Z,97193.45
2023-03-05T04:00:19.752Z,97195.10
2023-03-05T04:02:48.496Z,97197.07
2023-03-05T04:06:18.432Z,97197.79
2023-03-05T04:08:47.648Z,97194.84
2023-03-05T04:11:16.444Z,97196.40
2023-03-05T04:13:48.006Z,97195.88
2023-03-05T04:16:17.392Z,97195.41
2023-03-05T04:18:47.017Z,97194.17
2023-03-05T04:21:15.555Z,97192.73
2023-03-05T04:24:24.592Z,97194.31
2023-03-05T04:26:53.228Z,97190.54
2023-03-05T04:30:25.426Z,97190.36
2023-03-05T04:32:53.936Z,97192.39
2023-03-05T04:35:22.301Z,97188.00
2023-03-05T04:38:51.243Z,97187.26
2023-03-05T04:41:21.072Z,97189.73
2023-03-05T04:43:50.255Z,97192.08
2023-03-05T04:46:21.723Z,97190.86
2023-03-05T04:48:50.254Z,97191.08
2023-03-05T04:51:20.656Z,97193.50
2023-03-05T04:54:10.112Z,97195.71
2023-03-05T04:56:39.440Z,97196.02
2023-03-05T04:59:48.899Z,97198.25
2023-03-05T05:02:17.586Z,97198.66
2023-03-05T05:04:46.355Z,97199.09
2023-03-05T05:07:17.959Z,97198.97
2023-03-05T05:10:08.837Z,97200.95
2023-03-05T05:13:19.920Z,97203.61
2023-03-05T05:15:48.528Z,97207.88
2023-03-05T05:18:37.387Z,97213.83
2023-03-05T05:21:29.233Z,97216.31
2023-03-05T05:23:57.881Z,97221.30
2023-03-05T05:26:27.957Z,97220.48
2023-03-05T05:28:57.296Z,97223.88
2023-03-05T05:32:07.244Z,97224.49
2023-03-05T05:34:35.933Z,97227.94
2023-03-05T05:37:04.445Z,97233.37
2023-03-05T05:40:33.805Z,97237.92
2023-03-05T05:43:03.184Z,97239.20
2023-03-05T05:45:33.895Z,97244.96
2023-03-05T05:48:02.729Z,97245.45
2023-03-05T05:51:11.516Z,97247.99
2023-03-05T05:53:44.212Z,97249.44
2023-03-05T05:56:15.105Z,97251.83
2023-03-05T05:58:51.022Z,97254.88
2023-03-05T06:01:29.337Z,97258.92
2023-03-05T06:03:58.930Z,97264.30
2023-03-05T06:07:37.976Z,97268.88
2023-03-05T06:10:07.510Z,97273.02
2023-03-05T06:12:37.060Z,97271.34
2023-03-05T06:15:06.375Z,97271.67
2023-03-05T06:17:36.174Z,97274.61
2023-03-05T06:20:07.456Z,97278.84
2023-03-05T06:22:39.377Z,97286.92
2023-03-05T06:25:15.525Z,97290.83
2023-03-05T06:27:44.089Z,97293.96
2023-03-05T06:30:14.369Z,97296.55
2023-03-05T06:32:44.464Z,97292.71
2023-03-05T06:35:14.508Z,97291.83
2023-03-05T06:37:44.420Z,97292.15
2023-03-05T06:40:13.653Z,97293.15
2023-03-05T06:42:42.271Z,97295.79
2023-03-05T06:45:11.076Z,97295.55
2023-03-05T06:48:29.548Z,97294.23
2023-03-05T06:50:58.140Z,97293.58
2023-03-05T06:53:27.351Z,97293.70
2023-03-05T06:56:36.513Z,97291.27
2023-03-05T06:59:06.152Z,97294.48
2023-03-05T07:01:44.491Z,97294.14
2023-03-05T07:04:14.184Z,97295.61
2023-03-05T07:06:45.186Z,97294.41
2023-03-05T07:09:16.905Z,97293.23
2023-03-05T07:11:54.914Z,97295.14
2023-03-05T07:14:23.426Z,97299.39
2023-03-05T07:16:54.168Z,97301.67
2023-03-05T07:19:22.683Z,97302.10
2023-03-05T07:21:52.250Z,97304.41
2023-03-05T07:24:23.105Z,97304.54
2023-03-05T07:26:51.902Z,97309.59
2023-03-05T07:29:21.306Z,97307.96
2023-03-05T07:31:59.048Z,97307.60
2023-03-05T07:34:28.764Z,97309.34
2023-03-05T07:36:57.121Z,97308.61
2023-03-05T07:39:34.563Z,97309.72
2023-03-05T07:42:13.540Z,97307.96
2023-03-05T07:45:02.173Z,97306.82
2023-03-05T07:47:30.811Z,97310.88
2023-03-05T07:50:21.821Z,97311.49
2023-03-05T07:52:53.352Z,97308.79
2023-03-05T07:55:22.018Z,97309.63
2023-03-05T07:58:04.691Z,97300.23
2023-03-05T08:00:35.565Z,97297.46
2023-03-05T08:03:07.605Z,97295.05
2023-03-05T08:05:49.640Z,97293.84
2023-03-05T08:09:05.219Z,97290.38
2023-03-05T08:11:34.019Z,97289.15
2023-03-05T08:14:04.854Z,97288.02
2023-03-05T08:16:33.846Z,97285.02
2023-03-05T08:19:42.834Z,97282.10
2023-03-05T08:22:16.321Z,97278.42
2023-03-05T08:25:25.531Z,97278.98
2023-03-05T08:27:56.476Z,97275.90
2023-03-05T08:30:34.939Z,97273.49
2023-03-05T08:33:04.684Z,97268.71
2023-03-05T08:35:37.208Z,97264.04
2023-03-05T08:38:09.728Z,97260.35
2023-03-05T08:41:39.060Z,97256.71
2023-03-05T08:44:09.087Z,97257.60
2023-03-05T08:46:46.719Z,97258.12
2023-03-05T08:49:16.794Z,97260.59
2023-03-05T08:51:46.127Z,97258.50
2023-03-05T08:54:35.395Z,97253.48
2023-03-05T08:57:04.688Z,97253.62
2023-03-05T08:59:33.391Z,97253.21
2023-03-05T09:02:22.873Z,97257.09
2023-03-05T09:04:51.841Z,97250.67
2023-03-05T09:07:20.929Z,97258.87
2023-03-05T09:09:50.696Z,97261.33
2023-03-05T09:12:20.183Z,97258.19
2023-03-05T09:14:59.650Z,97258.52
2023-03-05T09:17:29.316Z,97254.82
2023-03-05T09:19:57.844Z,97254.08
2023-03-05T09:22:26.480Z,97252.52
2023-03-05T09:24:54.921Z,97248.16
2023-03-05T09:27:23.618Z,97244.88
2023-03-05T09:30:54.047Z,97246.58
2023-03-05T09:33:22.462Z,97245.30
2023-03-05T09:35:51.815Z,97244.63
2023-03-05T09:38:21.369Z,97240.78
2023-03-05T09:41:16.683Z,97244.30
2023-03-05T09:44:27.109Z,97245.27
2023-03-05T09:47:14.757Z,97245.02
2023-03-05T09:50:04.213Z,97244.58
2023-03-05T09:52:48.323Z,97243.61
2023-03-05T09:55:44.107Z,97238.73
2023-03-05T09:58:25.196Z,97234.70
2023-03-05T10:01:01.176Z,97231.52
2023-03-05T10:03:45.934Z,97230.31
2023-03-05T10:06:30.644Z,97225.54
2023-03-05T10:09:07.640Z,97222.56
2023-03-05T10:11:56.676Z,97217.97
2023-03-05T10:14:47.690Z,97218.84
2023-03-05T10:17:37.325Z,97216.30
2023-03-05T10:20:25.178Z,97217.21
2023-03-05T10:23:04.832Z,97209.89
2023-03-05T10:25:51.758Z,97203.34
2023-03-05T10:29:22.859Z,97206.23
2023-03-05T10:32:16.498Z,97200.86
2023-03-05T10:35:49.712Z,97198.54
2023-03-05T10:39:20.416Z,97197.32
2023-03-05T10:42:16.058Z,97193.91
2023-03-05T10:44:57.949Z,97192.59
2023-03-05T10:47:31.844Z,97188.88
2023-03-05T10:50:00.297Z,97186.92
2023-03-05T10:52:39.767Z,97183.02
2023-03-05T10:55:26.802Z,97179.80
2023-03-05T10:57:56.316Z,97176.84
2023-03-05T11:00:28.299Z,97169.23
2023-03-05T11:03:04.155Z,97164.73
2023-03-05T11:06:12.667Z,97160.33
2023-03-05T11:08:41.849Z,97160.54
2023-03-05T11:11:31.468Z,97159.12
2023-03-05T11:14:04.426Z,97151.95
2023-03-05T11:16:47.806Z,97144.06
2023-03-05T11:19:36.970Z,97145.44
2023-03-05T11:22:22.013Z,97141.59
2023-03-05T11:25:22.158Z,97138.70
2023-03-05T11:28:32.393Z,97134.11
2023-03-05T11:31:35.520Z,97130.21
2023-03-05T11:34:30.405Z,97125.52
2023-03-05T11:37:10.750Z,97119.59
2023-03-05T11:39:41.019Z,97118.68
2023-03-05T11:42:26.150Z,97113.02
2023-03-05T11:44:59.218Z,97109.80
2023-03-05T11:47:49.569Z,97109.51
2023-03-05T11:50:35.387Z,97105.61
2023-03-05T11:53:12.233Z,97100.95
2023-03-05T11:56:01.376Z,97103.81
2023-03-05T11:59:01.560Z,97101.41
2023-03-05T12:01:40.679Z,97096.91
2023-03-05T12:04:22.520Z,97094.96
2023-03-05T12:07:11.287Z,97086.84
2023-03-05T12:12:51.562Z,97083.09
2023-03-05T12:16:20.440Z,97078.73
2023-03-05T12:22:38.712Z,97074.64
2023-03-05T12:25:49.557Z,97067.16
2023-03-05T12:28:41.855Z,97063.19
2023-03-05T12:31:13.713Z,97061.18
2023-03-05T12:36:57.847Z,97057.10
2023-03-05T12:40:12.760Z,97055.47
2023-03-05T12:43:10.915Z,97054.89
2023-03-05T12:45:42.141Z,97053.17
2023-03-05T12:48:12.477Z,97048.81
2023-03-05T12:50:43.222Z,97051.65
2023-03-05T12:53:36.291Z,97051.23
2023-03-05T12:57:01.170Z,97052.41
2023-03-05T12:59:43.307Z,97048.55
2023-03-05T13:02:39.416Z,97050.86
2023-03-05T13:05:28.466Z,97043.96
2023-03-05T13:08:32.760Z,97042.02
2023-03-05T13:11:06.382Z,97038.60
2023-03-05T13:13:51.653Z,97035.62
2023-03-05T13:16:24.427Z,97033.91
2023-03-05T13:19:05.629Z,97032.57
2023-03-05T13:24:50.169Z,97027.89
2023-03-05T13:27:36.622Z,97022.91
2023-03-05T13:30:25.906Z,97024.17
2023-03-05T13:33:12.934Z,97026.89
2023-03-05T13:35:52.884Z,97027.54
2023-03-05T13:38:49.082Z,97027.56
2023-03-05T13:41:25.360Z,97027.66
2023-03-05T13:44:56.506Z,97029.20
2023-03-05T13:47:38.202Z,97030.45
2023-03-05T13:50:09.869Z,97031.45
2023-03-05T13:52:45.559Z,97032.45
2023-03-05T13:55:21.837Z,97035.19
2023-03-05T13:57:56.648Z,97031.73
2023-03-05T14:00:40.138Z,97034.21
2023-03-05T14:03:38.690Z,97030.21
2023-03-05T14:07:00.194Z,97033.44
2023-03-05T14:09:40.574Z,97036.09
2023-03-05T14:12:48.634Z,97034.21
2023-03-05T14:16:05.502Z,97032.60
2023-03-05T14:19:36.259Z,97032.98
2023-03-05T14:22:30.289Z,97037.66
2023-03-05T14:25:40.103Z,97038.31
2023-03-05T14:28:53.412Z,97035.65
2023-03-05T14:31:30.469Z,97031.92
2023-03-05T14:34:05.408Z,97030.67
2023-03-05T14:36:43.484Z,97029.49
2023-03-05T14:40:15.237Z,97026.17
2023-03-05T14:43:10.379Z,97029.76
2023-03-05T14:45:50.837Z,97027.48
2023-03-05T14:48:29.975Z,97027.86
2023-03-05T14:51:14.326Z,97024.58
2023-03-05T14:53:52.142Z,97027.19
2023-03-05T14:56:28.091Z,97031.32
2023-03-05T14:59:02.045Z,97028.38
2023-03-05T15:01:34.801Z,97027.88
2023-03-05T15:04:12.431Z,97024.66
2023-03-05T15:07:06.578Z,97027.66
2023-03-05T15:09:45.018Z,97029.36
2023-03-05T15:12:25.201Z,97030.98
2023-03-05T15:15:04.695Z,97031.15
2023-03-05T15:17:39.197Z,97030.81
2023-03-05T15:21:22.140Z,97034.23
2023-03-05T15:23:54.378Z,97033.86
2023-03-05T15:26:22.788Z,97032.44
2023-03-05T15:28:53.671Z,97028.21
2023-03-05T15:31:22.088Z,97028.25
2023-03-05T15:33:50.536Z,97030.45
2023-03-05T15:36:40.892Z,97029.89
2023-03-05T15:39:17.336Z,97028.55
2023-03-05T15:41:49.841Z,97025.67
2023-03-05T15:44:20.563Z,97030.33
2023-03-05T15:46:48.803Z,97036.74
2023-03-05T15:49:17.359Z,97029.11
2023-03-05T15:51:45.743Z,97030.52
2023-03-05T15:54:14.121Z,97030.42
2023-03-05T15:56:43.216Z,97028.33
2023-03-05T15:59:13.569Z,97031.08
2023-03-05T16:02:15.981Z,97033.52
2023-03-05T16:04:44.643Z,97038.16
2023-03-05T16:07:15.406Z,97041.05
2023-03-05T16:09:50.051Z,97039.35
2023-03-05T16:12:27.146Z,97041.59
2023-03-05T16:14:55.508Z,97042.48
2023-03-05T16:17:24.360Z,97043.33
2023-03-05T16:19:55.682Z,97042.97
2023-03-05T16:22:24.092Z,97046.88
2023-03-05T16:24:52.407Z,97045.48
2023-03-05T16:27:24.657Z,97047.10
2023-03-05T16:29:54.142Z,97047.28
2023-03-05T16:32:54.056Z,97052.41
2023-03-05T16:35:22.588Z,97051.14
2023-03-05T16:37:51.213Z,97049.48
2023-03-05T16:40:19.793Z,97054.48
2023-03-05T16:42:48.239Z,97055.55
2023-03-05T16:45:20.747Z,97054.23
2023-03-05T16:47:50.798Z,97061.30
2023-03-05T16:50:20.573Z,97056.89
2023-03-05T16:53:00.577Z,97063.13
2023-03-05T16:55:29.149Z,97063.03
2023-03-05T16:57:58.472Z,97063.23
2023-03-05T17:00:26.880Z,97067.98
2023-03-05T17:02:55.400Z,97067.42
2023-03-05T17:05:28.306Z,97069.13
2023-03-05T17:07:56.938Z,97070.30
2023-03-05T17:10:28.808Z,97073.43
2023-03-05T17:12:57.771Z,97074.48
2023-03-05T17:15:31.972Z,97076.88
2023-03-05T17:18:08.693Z,97080.20
2023-03-05T17:20:42.799Z,97085.48
2023-03-05T17:23:12.636Z,97087.23
2023-03-05T17:25:41.202Z,97091.31
2023-03-05T17:28:10.248Z,97090.99
2023-03-05T17:30:38.764Z,97092.35
2023-03-05T17:33:07.425Z,97095.38
2023-03-05T17:35:36.274Z,97095.88
2023-03-05T17:38:10.666Z,97096.54
2023-03-05T17:40:39.417Z,97100.42
2023-03-05T17:43:14.193Z,97096.19
2023-03-05T17:45:42.979Z,97097.40
2023-03-05T17:48:13.040Z,97097.42
2023-03-05T17:50:49.615Z,97096.71
2023-03-05T17:53:18.625Z,97098.45
2023-03-05T17:56:00.711Z,97099.18
2023-03-05T17:58:32.318Z,97097.36
2023-03-05T18:01:01.068Z,97097.27
2023-03-05T18:03:29.721Z,97097.83
2023-03-05T18:05:58.594Z,97097.64
2023-03-05T18:08:27.387Z,97098.75
2023-03-05T18:10:55.810Z,97097.29
2023-03-05T18:13:25.473Z,97095.89
2023-03-05T18:15:53.925Z,97097.77
2023-03-05T18:18:22.365Z,97102.89
2023-03-05T18:21:20.156Z,97099.39
2023-03-05T18:23:53.574Z,97100.42
2023-03-05T18:26:22.330Z,97102.45
2023-03-05T18:28:52.797Z,97102.27
2023-03-05T18:31:24.843Z,97099.53
2023-03-05T18:33:54.389Z,97099.02
2023-03-05T18:36:25.793Z,97095.16
2023-03-05T18:39:04.631Z,97098.98
2023-03-05T18:41:35.688Z,97098.69
2023-03-05T18:44:14.459Z,97103.77
2023-03-05T18:46:43.043Z,97103.08
2023-03-05T18:49:12.291Z,97102.39
2023-03-05T18:51:47.007Z,97097.69
2023-03-05T18:54:15.647Z,97097.33
2023-03-05T18:56:47.159Z,97092.93
2023-03-05T18:59:22.100Z,97097.54
2023-03-05T19:01:50.898Z,97100.86
2023-03-05T19:04:20.547Z,97101.41
2023-03-05T19:06:51.769Z,97103.29
2023-03-05T19:10:04.721Z,97102.90
2023-03-05T19:50:34.614Z,97100.46
2023-03-05T19:58:21.380Z,97104.84
2023-03-05T20:06:30.613Z,97107.37
2023-03-05T20:13:04.365Z,97106.33
2023-03-05T20:15:34.753Z,97110.75
2023-03-05T20:22:30.128Z,97108.77
2023-03-05T20:25:00.158Z,97106.94
2023-03-05T20:27:43.287Z,97104.96
2023-03-05T21:30:48.664Z,97089.57
2023-03-05T21:39:42.044Z,97085.55
2023-03-05T21:44:34.738Z,97084.82
2023-03-05T22:05:09.379Z,97069.83
2023-03-05T22:06:25.521Z,97072.92
2023-03-05T22:09:48.534Z,97071.89
2023-03-05T22:13:35.725Z,97073.53
2023-03-05T22:17:02.726Z,97071.17
2023-03-05T22:19:41.073Z,97061.96
2023-03-05T22:22:24.944Z,97060.12
2023-03-05T22:25:37.169Z,97052.38
2023-03-05T22:28:06.324Z,97049.02
2023-03-05T22:30:35.101Z,97045.98
2023-03-05T22:33:17.208Z,97047.16
2023-03-05T22:35:51.955Z,97048.85
2023-03-05T22:38:30.940Z,97048.52
2023-03-05T22:41:10.196Z,97048.55
2023-03-05T22:43:49.882Z,97047.84
2023-03-05T22:46:37.505Z,97043.79
2023-03-05T22:49:06.126Z,97042.56
2023-03-05T22:51:42.914Z,97044.96
2023-03-05T22:54:47.376Z,97044.48
2023-03-05T22:57:19.318Z,97043.91
2023-03-05T22:59:49.866Z,97036.91
2023-03-05T23:02:31.502Z,97035.61
2023-03-05T23:05:40.544Z,97037.95
2023-03-05T23:08:09.478Z,97037.75
2023-03-05T23:10:55.439Z,97037.13
2023-03-05T23:13:33.498Z,97036.21
2023-03-05T23:16:15.827Z,97035.38
2023-03-05T23:18:47.450Z,97033.48
2023-03-05T23:21:27.701Z,97032.80
2023-03-05T23:23:57.845Z,97037.77
2023-03-05T23:26:29.507Z,97041.15
2023-03-05T23:28:58.103Z,97041.53
2023-03-05T23:31:29.672Z,97040.31
2023-03-05T23:34:20.939Z,97042.95
2023-03-05T23:36:54.750Z,97041.21
2023-03-05T23:39:23.369Z,97045.36
2023-03-05T23:41:51.895Z,97041.25
2023-03-05T23:44:20.678Z,97039.45
2023-03-05T23:47:05.532Z,97033.41
2023-03-05T23:49:36.454Z,97034.56
2023-03-05T23:52:05.016Z,97037.98
2023-03-05T23:54:50.065Z,97039.58
2023-03-05T23:57:18.659Z,97040.92
2023-03-05T23:59:47.163Z,97038.86
